createdAt,value
2023-01-08T00:02:09.240Z,26.70
2023-01-08T00:05:06.906Z,23.40
2023-01-08T00:08:04.370Z,27.60
2023-01-08T00:11:02.092Z,24.70
2023-01-08T00:13:59.503Z,23.30
2023-01-08T00:16:57.347Z,26.10
2023-01-08T00:19:54.936Z,21.50
2023-01-08T00:22:52.674Z,21.40
2023-01-08T00:25:50.105Z,23.40
2023-01-08T00:28:47.808Z,24.00
2023-01-08T00:31:45.504Z,23.90
2023-01-08T00:34:43.237Z,24.20
2023-01-08T00:37:40.919Z,19.70
2023-01-08T00:40:38.849Z,21.00
2023-01-08T00:43:36.314Z,22.90
2023-01-08T00:46:33.925Z,21.80
2023-01-08T00:49:31.355Z,23.70
2023-01-08T00:52:29.125Z,22.30
2023-01-08T00:55:26.587Z,22.50
2023-01-08T00:58:24.343Z,21.20
2023-01-08T01:01:22.132Z,21.00
2023-01-08T01:04:19.807Z,21.20
2023-01-08T01:07:17.541Z,18.40
2023-01-08T01:10:14.975Z,20.30
2023-01-08T01:13:12.780Z,20.50
2023-01-08T01:16:10.210Z,21.50
2023-01-08T01:19:07.857Z,23.50
2023-01-08T01:22:05.287Z,20.60
2023-01-08T01:25:02.990Z,23.90
2023-01-08T01:28:00.422Z,20.90
2023-01-08T01:30:58.226Z,22.70
2023-01-08T01:33:55.821Z,21.60
2023-01-08T01:36:53.719Z,20.30
2023-01-08T01:39:51.160Z,23.30
2023-01-08T01:42:49.424Z,21.50
2023-01-08T01:45:47.088Z,22.20
2023-01-08T01:48:44.548Z,23.30
2023-01-08T01:51:42.238Z,22.10
2023-01-08T01:54:39.666Z,21.30
2023-01-08T01:57:37.448Z,23.90
2023-01-08T02:00:35.029Z,23.30
2023-01-08T02:03:32.758Z,26.00
2023-01-08T02:06:30.184Z,23.20
2023-01-08T02:09:27.785Z,23.60
2023-01-08T02:12:25.251Z,25.20
2023-01-08T02:15:23.428Z,27.20
2023-01-08T02:18:20.961Z,24.00
2023-01-08T02:21:18.761Z,21.00
2023-01-08T02:24:16.190Z,24.00
2023-01-08T02:27:13.957Z,24.30
2023-01-08T02:30:11.751Z,24.40
2023-01-08T02:33:09.188Z,27.00
2023-01-08T02:36:06.873Z,24.50
2023-01-08T02:39:04.291Z,24.10
2023-01-08T02:42:01.887Z,22.70
2023-01-08T02:44:59.325Z,22.80
2023-01-08T02:47:56.910Z,24.60
2023-01-08T02:50:54.683Z,27.40
2023-01-08T02:53:52.159Z,30.00
2023-01-08T02:56:49.912Z,28.50
2023-01-08T02:59:47.332Z,31.00
2023-01-08T03:02:44.916Z,29.30
2023-01-08T03:05:42.341Z,28.10
2023-01-08T03:08:39.945Z,27.50
2023-01-08T03:11:38.048Z,24.50
2023-01-08T03:14:35.519Z,26.10
2023-01-08T03:17:33.225Z,26.70
2023-01-08T03:20:30.689Z,27.20
2023-01-08T03:23:28.367Z,29.20
2023-01-08T03:26:25.791Z,27.70
2023-01-08T03:29:24.637Z,27.10
2023-01-08T03:32:22.262Z,28.80
2023-01-08T03:35:19.704Z,32.10
2023-01-08T03:38:17.417Z,34.00
2023-01-08T03:41:14.864Z,34.60
2023-01-08T03:44:12.640Z,38.20
2023-01-08T03:47:10.067Z,28.70
2023-01-08T03:50:07.757Z,26.30
2023-01-08T03:53:05.184Z,28.60
2023-01-08T03:56:02.913Z,32.90
2023-01-08T03:59:00.527Z,28.80
2023-01-08T04:01:58.031Z,29.70
2023-01-08T04:04:55.783Z,29.80
2023-01-08T04:07:53.214Z,32.10
2023-01-08T04:10:50.913Z,31.20
2023-01-08T04:13:48.344Z,31.20
2023-01-08T04:16:45.919Z,31.10
2023-01-08T04:19:43.351Z,31.70
2023-01-08T04:22:41.058Z,33.10
2023-01-08T04:25:38.523Z,26.70
2023-01-08T04:28:36.211Z,31.90
2023-01-08T04:31:33.943Z,33.20
2023-01-08T04:34:31.375Z,30.00
2023-01-08T04:37:29.085Z,33.70
2023-01-08T04:40:26.522Z,30.20
2023-01-08T04:43:24.205Z,34.10
2023-01-08T04:46:21.669Z,34.60
2023-01-08T04:49:19.425Z,35.90
2023-01-08T04:52:16.846Z,40.60
2023-01-08T04:55:14.571Z,35.40
2023-01-08T04:58:11.999Z,35.40
2023-01-08T05:01:09.685Z,31.10
2023-01-08T05:04:07.546Z,34.80
2023-01-08T05:07:04.988Z,36.20
2023-01-08T05:10:02.683Z,38.10
2023-01-08T05:13:00.119Z,35.50
2023-01-08T05:15:57.762Z,32.50
2023-01-08T05:18:55.213Z,26.30
2023-01-08T05:21:53.039Z,29.30
2023-01-08T05:24:50.471Z,42.60
2023-01-08T05:27:48.267Z,45.80
2023-01-08T05:30:46.105Z,36.20
2023-01-08T05:33:43.565Z,31.60
2023-01-08T05:36:41.245Z,33.50
2023-01-08T05:39:38.651Z,32.70
2023-01-08T05:42:36.773Z,31.00
2023-01-08T05:45:34.217Z,27.80
2023-01-08T05:48:31.990Z,23.20
2023-01-08T05:51:29.424Z,27.20
2023-01-08T05:54:27.020Z,31.40
2023-01-08T05:57:24.695Z,26.80
2023-01-08T06:00:22.111Z,24.70
2023-01-08T06:03:19.921Z,25.80
2023-01-08T06:06:17.807Z,21.80
2023-01-08T06:09:15.407Z,24.90
2023-01-08T06:12:12.872Z,23.90
2023-01-08T06:15:10.503Z,25.80
2023-01-08T06:18:07.932Z,25.00
2023-01-08T06:21:05.803Z,25.50
2023-01-08T06:24:03.229Z,26.90
2023-01-08T06:27:00.937Z,25.00
2023-01-08T06:29:58.349Z,23.50
2023-01-08T06:32:56.037Z,23.70
2023-01-08T06:35:53.650Z,24.10
2023-01-08T06:38:51.059Z,25.10
2023-01-08T06:41:48.738Z,32.10
2023-01-08T06:44:46.176Z,28.90
2023-01-08T06:47:43.863Z,26.30
2023-01-08T06:50:41.287Z,27.50
2023-01-08T06:53:39.105Z,30.00
2023-01-08T06:56:52.356Z,24.90
2023-01-08T06:59:50.908Z,21.00
2023-01-08T07:02:48.702Z,28.10
2023-01-08T07:05:46.336Z,24.00
2023-01-08T07:08:43.993Z,25.00
2023-01-08T07:11:41.447Z,24.70
2023-01-08T07:14:39.240Z,21.40
2023-01-08T07:17:36.663Z,25.00
2023-01-08T07:20:34.357Z,28.10
2023-01-08T07:23:31.780Z,23.80
2023-01-08T07:26:29.438Z,24.60
2023-01-08T07:29:27.386Z,22.80
2023-01-08T07:32:25.113Z,24.80
2023-01-08T07:35:22.550Z,23.30
2023-01-08T07:38:20.250Z,24.20
2023-01-08T07:41:17.683Z,22.90
2023-01-08T07:44:15.491Z,25.40
2023-01-08T07:47:13.628Z,23.40
2023-01-08T07:50:11.047Z,24.40
2023-01-08T07:53:08.677Z,22.80
2023-01-08T07:56:06.110Z,24.90
2023-01-08T07:59:03.780Z,21.90
2023-01-08T08:02:01.353Z,23.10
2023-01-08T08:04:59.237Z,20.50
2023-01-08T08:07:56.662Z,22.80
2023-01-08T08:10:54.464Z,19.20
2023-01-08T08:13:53.062Z,21.30
2023-01-08T08:16:51.221Z,19.20
2023-01-08T08:19:48.639Z,22.70
2023-01-08T08:22:46.481Z,19.00
2023-01-08T08:25:44.223Z,18.90
2023-01-08T08:28:41.704Z,17.50
2023-01-08T08:31:39.462Z,19.60
2023-01-08T08:34:36.925Z,20.80
2023-01-08T08:37:34.663Z,18.50
2023-01-08T08:40:32.108Z,20.50
2023-01-08T08:43:29.696Z,20.80
2023-01-08T08:46:27.140Z,24.80
2023-01-08T08:49:24.831Z,18.10
2023-01-08T08:52:22.275Z,21.90
2023-01-08T08:56:03.151Z,20.50
2023-01-08T08:59:00.573Z,20.50
2023-01-08T09:01:58.508Z,21.50
2023-01-08T09:04:56.051Z,19.80
2023-01-08T09:07:54.768Z,21.30
2023-01-08T09:10:52.447Z,21.30
2023-01-08T09:13:50.119Z,18.30
2023-01-08T09:16:47.852Z,21.80
2023-01-08T09:19:45.295Z,20.00
2023-01-08T09:22:42.976Z,20.30
2023-01-08T09:25:40.408Z,18.20
2023-01-08T09:28:38.481Z,18.80
2023-01-08T09:31:36.004Z,18.00
2023-01-08T09:34:33.736Z,18.20
2023-01-08T09:37:31.191Z,18.30
2023-01-08T09:40:28.867Z,17.80
2023-01-08T09:43:26.434Z,16.70
2023-01-08T09:46:24.823Z,20.40
2023-01-08T09:49:22.297Z,15.30
2023-01-08T09:52:20.228Z,19.20
2023-01-08T09:55:17.966Z,16.90
2023-01-08T09:58:15.429Z,16.20
2023-01-08T10:01:13.262Z,16.80
2023-01-08T10:04:11.626Z,17.20
2023-01-08T10:07:09.484Z,19.10
2023-01-08T10:10:07.143Z,18.30
2023-01-08T10:13:05.086Z,16.40
2023-01-08T10:16:04.621Z,18.10
2023-01-08T10:19:02.425Z,17.90
2023-01-08T10:21:59.883Z,20.30
2023-01-08T10:24:57.700Z,13.90
2023-01-08T10:27:55.190Z,18.70
2023-01-08T10:30:53.083Z,18.70
2023-01-08T10:33:50.900Z,17.50
2023-01-08T10:36:48.338Z,18.20
2023-01-08T10:39:45.948Z,20.80
2023-01-08T10:42:43.399Z,21.00
2023-01-08T10:45:42.399Z,18.80
2023-01-08T10:48:40.054Z,23.40
2023-01-08T10:51:37.601Z,20.00
2023-01-08T10:54:35.409Z,20.40
2023-01-08T10:57:33.415Z,18.90
2023-01-08T11:00:31.167Z,16.70
2023-01-08T11:03:28.661Z,17.60
2023-01-08T11:06:26.445Z,18.30
2023-01-08T11:09:24.074Z,21.90
2023-01-08T11:12:21.523Z,20.60
2023-01-08T11:15:19.337Z,22.40
2023-01-08T11:18:16.819Z,21.90
2023-01-08T11:21:14.578Z,20.10
2023-01-08T11:24:12.844Z,19.10
2023-01-08T11:27:10.298Z,21.10
2023-01-08T11:30:08.132Z,21.70
2023-01-08T11:33:05.558Z,22.90
2023-01-08T11:36:03.005Z,22.00
2023-01-08T11:39:00.432Z,25.70
2023-01-08T11:41:58.112Z,23.10
2023-01-08T11:44:55.873Z,21.60
2023-01-08T11:47:53.292Z,21.60
2023-01-08T11:50:51.006Z,22.80
2023-01-08T11:53:48.442Z,22.00
2023-01-08T11:56:46.042Z,21.30
2023-01-08T11:59:43.500Z,22.90
2023-01-08T12:02:41.859Z,18.70
2023-01-08T12:05:39.392Z,19.50
2023-01-08T12:08:37.025Z,22.00
2023-01-08T12:11:34.455Z,19.90
2023-01-08T12:14:32.257Z,18.50
2023-01-08T12:17:30.013Z,18.30
2023-01-08T12:20:27.463Z,20.10
2023-01-08T12:23:25.230Z,19.50
2023-01-08T12:26:22.739Z,22.40
2023-01-08T12:29:20.450Z,22.60
2023-01-08T12:32:17.921Z,21.60
2023-01-08T12:35:15.674Z,20.90
2023-01-08T12:38:13.115Z,20.20
2023-01-08T12:41:10.830Z,22.30
2023-01-08T12:44:10.621Z,19.50
2023-01-08T12:47:08.062Z,22.40
2023-01-08T12:50:05.953Z,18.50
2023-01-08T12:53:03.508Z,19.60
2023-01-08T12:56:02.796Z,19.10
2023-01-08T12:59:00.274Z,22.20
2023-01-08T13:01:58.261Z,22.40
2023-01-08T13:04:56.313Z,20.10
2023-01-08T13:07:53.782Z,21.00
2023-01-08T13:10:51.438Z,22.90
2023-01-08T13:13:49.001Z,22.50
2023-01-08T13:16:46.826Z,19.40
2023-01-08T13:19:44.330Z,21.80
2023-01-08T13:22:42.108Z,25.60
2023-01-08T13:25:40.069Z,20.60
2023-01-08T13:28:37.833Z,21.80
2023-01-08T13:31:35.638Z,24.00
2023-01-08T13:34:33.171Z,21.50
2023-01-08T13:37:31.043Z,19.40
2023-01-08T13:40:28.599Z,20.20
2023-01-08T13:43:26.356Z,19.40
2023-01-08T13:46:24.030Z,19.60
2023-01-08T13:49:21.902Z,20.40
2023-01-08T13:52:19.668Z,23.30
2023-01-08T13:55:17.146Z,20.50
2023-01-08T13:58:14.996Z,23.00
2023-01-08T14:01:13.499Z,17.10
2023-01-08T14:04:11.453Z,17.20
2023-01-08T14:07:09.222Z,18.70
2023-01-08T14:10:06.660Z,21.00
2023-01-08T14:13:04.447Z,17.70
2023-01-08T14:16:01.904Z,15.30
2023-01-08T14:18:59.594Z,16.70
2023-01-08T14:21:57.055Z,15.80
2023-01-08T14:24:54.849Z,19.20
2023-01-08T14:27:52.572Z,18.20
2023-01-08T14:30:50.442Z,12.80
2023-01-08T14:33:48.520Z,17.50
2023-01-08T14:36:45.976Z,15.10
2023-01-08T14:39:44.044Z,18.40
2023-01-08T14:42:51.847Z,16.10
2023-01-08T14:45:55.116Z,15.10
2023-01-08T14:48:56.979Z,19.50
2023-01-08T14:52:03.996Z,15.10
2023-01-08T14:55:07.542Z,16.70
2023-01-08T14:58:09.229Z,12.60
2023-01-08T15:01:15.048Z,15.60
2023-01-08T15:04:18.928Z,17.40
2023-01-08T15:10:20.636Z,16.90
2023-01-08T15:17:06.405Z,17.50
2023-01-08T15:20:05.517Z,12.10
2023-01-08T15:23:02.936Z,15.60
2023-01-08T15:26:00.823Z,14.80
2023-01-08T15:28:58.288Z,15.10
2023-01-08T15:31:56.102Z,15.50
2023-01-08T15:34:54.187Z,15.90
2023-01-08T15:37:51.680Z,15.10
2023-01-08T15:40:49.478Z,14.90
2023-01-08T15:43:46.896Z,14.70
2023-01-08T15:46:44.705Z,17.00
2023-01-08T15:49:42.143Z,14.60
2023-01-08T15:52:40.031Z,15.40
2023-01-08T15:55:37.993Z,17.30
2023-01-08T15:58:35.431Z,14.50
2023-01-08T16:01:33.147Z,13.90
2023-01-08T16:04:30.783Z,18.20
2023-01-08T16:07:28.646Z,17.10
2023-01-08T16:10:26.495Z,17.10
2023-01-08T16:13:24.257Z,20.50
2023-01-08T16:16:22.717Z,15.70
2023-01-08T16:19:20.533Z,15.90
2023-01-08T16:22:18.400Z,18.30
2023-01-08T16:25:16.381Z,14.00
2023-01-08T16:28:14.252Z,21.50
2023-01-08T16:31:12.180Z,17.20
2023-01-08T16:34:10.623Z,16.20
2023-01-08T16:37:09.017Z,17.30
2023-01-08T16:40:07.110Z,16.90
2023-01-08T16:43:05.191Z,14.40
2023-01-08T16:46:04.691Z,16.60
2023-01-08T16:49:02.227Z,12.80
2023-01-08T16:51:59.951Z,13.30
2023-01-08T16:54:57.885Z,15.30
2023-01-08T16:57:56.339Z,12.40
2023-01-08T17:00:54.843Z,13.60
2023-01-08T17:03:52.882Z,38.10
2023-01-08T17:06:50.746Z,16.80
2023-01-08T17:09:48.187Z,14.90
2023-01-08T17:12:46.413Z,12.30
2023-01-08T17:15:44.305Z,13.50
2023-01-08T17:18:42.660Z,11.90
2023-01-08T17:21:41.031Z,15.80
2023-01-08T17:24:39.671Z,18.20
2023-01-08T17:27:38.425Z,15.00
2023-01-08T17:30:36.827Z,13.90
2023-01-08T17:33:35.786Z,13.90
2023-01-08T17:36:34.277Z,12.30
2023-01-08T17:39:33.377Z,14.50
2023-01-08T17:42:30.958Z,15.50
2023-01-08T17:45:28.792Z,13.30
2023-01-08T17:48:27.091Z,11.10
2023-01-08T17:51:27.072Z,11.40
2023-01-08T17:54:25.471Z,12.80
2023-01-08T17:57:23.895Z,11.50
2023-01-08T18:00:22.168Z,12.50
2023-01-08T18:03:19.959Z,11.20
2023-01-08T18:06:18.693Z,13.70
2023-01-08T18:09:17.020Z,10.80
2023-01-08T18:12:15.725Z,15.60
2023-01-08T18:15:16.435Z,14.80
2023-01-08T18:18:14.458Z,14.60
2023-01-08T18:21:11.942Z,15.10
2023-01-08T18:24:09.986Z,16.00
2023-01-08T18:27:07.630Z,14.20
2023-01-08T18:30:06.064Z,11.60
2023-01-08T18:33:03.987Z,19.00
2023-01-08T18:36:03.391Z,19.40
2023-01-08T18:39:01.751Z,19.80
2023-01-08T18:42:17.338Z,21.10
2023-01-08T18:45:15.632Z,23.80
2023-01-08T18:48:13.777Z,23.50
2023-01-08T18:51:11.512Z,23.10
2023-01-08T18:54:11.660Z,28.90
2023-01-08T18:57:09.571Z,24.60
2023-01-08T19:00:10.341Z,25.50
2023-01-08T19:03:09.471Z,23.30
2023-01-08T19:06:07.724Z,20.90
2023-01-08T19:09:05.250Z,21.60
2023-01-08T19:12:03.783Z,21.40
2023-01-08T19:15:01.338Z,19.90
2023-01-08T19:18:00.358Z,21.30
2023-01-08T19:20:59.998Z,19.50
2023-01-08T19:23:58.405Z,20.10
2023-01-08T19:26:56.696Z,17.40
2023-01-08T19:29:54.515Z,19.60
2023-01-08T19:32:52.252Z,18.10
2023-01-08T19:35:50.160Z,21.80
2023-01-08T19:38:50.351Z,19.40
2023-01-08T19:42:06.270Z,19.70
2023-01-08T19:45:04.795Z,22.50
2023-01-08T19:48:02.707Z,21.00
2023-01-08T19:51:00.442Z,20.20
2023-01-08T19:53:58.838Z,23.60
2023-01-08T19:56:57.186Z,20.40
2023-01-08T19:59:55.716Z,18.10
2023-01-08T20:02:54.986Z,16.90
2023-01-08T20:05:53.241Z,16.30
2023-01-08T20:08:51.448Z,21.90
2023-01-08T20:11:49.837Z,20.30
2023-01-08T20:14:49.456Z,16.60
2023-01-08T20:17:47.415Z,21.20
2023-01-08T20:20:45.933Z,19.50
2023-01-08T20:23:44.000Z,17.20
2023-01-08T20:26:42.223Z,19.10
2023-01-08T20:29:40.952Z,19.90
2023-01-08T20:32:39.348Z,22.30
2023-01-08T20:35:37.082Z,23.80
2023-01-08T20:38:35.246Z,21.90
2023-01-08T20:41:36.001Z,23.00
2023-01-08T20:44:33.600Z,19.40
2023-01-08T20:47:32.203Z,20.50
2023-01-08T20:50:30.238Z,17.60
2023-01-08T20:53:29.632Z,18.20
2023-01-08T20:56:27.526Z,20.70
2023-01-08T20:59:25.709Z,21.90
2023-01-08T21:02:23.527Z,19.30
2023-01-08T21:05:21.680Z,18.40
2023-01-08T21:08:19.536Z,22.60
2023-01-08T21:11:17.273Z,16.00
2023-01-08T21:14:15.056Z,17.40
2023-01-08T21:17:12.784Z,18.80
2023-01-08T21:20:10.450Z,18.90
2023-01-08T21:23:07.884Z,20.30
2023-01-08T21:26:05.978Z,18.30
2023-01-08T21:29:04.294Z,22.20
2023-01-08T21:32:01.902Z,20.60
2023-01-08T21:34:59.843Z,19.40
2023-01-08T21:37:57.263Z,20.90
2023-01-08T21:40:55.141Z,21.40
2023-01-08T21:44:10.167Z,24.70
2023-01-08T21:47:09.004Z,25.80
2023-01-08T21:50:06.502Z,29.30
2023-01-08T21:53:21.975Z,33.20
2023-01-08T21:56:19.704Z,22.70
2023-01-08T21:59:17.165Z,25.70
2023-01-08T22:02:15.349Z,29.70
2023-01-08T22:05:12.786Z,30.80
2023-01-08T22:08:15.699Z,24.30
2023-01-08T22:11:13.400Z,25.00
2023-01-08T22:14:11.018Z,28.10
2023-01-08T22:17:08.696Z,30.30
2023-01-08T22:20:08.938Z,25.10
2023-01-08T22:23:06.677Z,22.30
2023-01-08T22:26:04.115Z,24.00
2023-01-08T22:29:01.746Z,20.90
2023-01-08T22:31:59.241Z,19.90
2023-01-08T22:34:56.930Z,18.70
2023-01-08T22:37:54.372Z,24.60
2023-01-08T22:40:52.065Z,23.10
2023-01-08T22:43:49.513Z,22.30
2023-01-08T22:46:47.134Z,21.10
2023-01-08T22:49:44.823Z,19.40
2023-01-08T22:52:42.292Z,20.40
2023-01-08T22:55:39.981Z,18.90
2023-01-08T22:58:37.397Z,18.60
2023-01-08T23:01:35.175Z,18.40
2023-01-08T23:04:32.733Z,23.90
2023-01-08T23:07:30.526Z,17.60
2023-01-08T23:10:27.965Z,20.10
2023-01-08T23:13:25.759Z,19.30
2023-01-08T23:16:24.824Z,19.10
2023-01-08T23:19:22.933Z,20.70
2023-01-08T23:22:20.693Z,20.50
2023-01-08T23:25:18.120Z,23.80
2023-01-08T23:28:15.808Z,23.70
2023-01-08T23:31:13.244Z,21.20
2023-01-08T23:34:10.841Z,19.50
2023-01-08T23:37:08.500Z,21.30
2023-01-08T23:40:05.912Z,16.90
2023-01-08T23:43:03.629Z,18.20
2023-01-08T23:46:01.060Z,23.30
2023-01-08T23:48:58.859Z,19.80
2023-01-08T23:51:56.276Z,19.30
2023-01-08T23:54:53.971Z,18.50
2023-01-08T23:57:51.393Z,18.60
